Elkhorn, Missouri
Current Conditions -  °F | °C
As of 7:55 PM on Friday 24 Oct 2014 (Local Time) from KFYG Reporting Station
Broken Clouds Broken Clouds  
Wind Chill: 66°   Ceiling: 4800
Heat Index: 66°   Visibility: 9mi
Dew Point: 55°   Wind: 3mph
Humidity: 68%   Direction: 140°SE
Pressure: 29.99"   Gusts: NA
Location:  38.7835°N, 91.2441°W
Report Text: KFYG 250055Z AUTO 14003KT 9SM BKN048 19/13 A2999 RMK AO2
Loading
Personal Weather Stations






























Interactive Weather Map New forecast layout! Learn more

10-Day Weather Forecast

Advertisements
Track Severe Weather on mobile